sensor_id;sensor_type;location;lat;lon;timestamp;pressure;altitude;pressure_sealevel;temperature;humidity
8501;BME280;4288;48.484;10.024;2022-12-19T00:01:19;96592.59;;;-5.38;nan
8501;BME280;4288;48.484;10.024;2022-12-19T00:03:48;96575.66;;;-5.36;nan
8501;BME280;4288;48.484;10.024;2022-12-19T00:06:17;96580.38;;;-5.33;nan
8501;BME280;4288;48.484;10.024;2022-12-19T00:08:47;96581.94;;;-5.37;nan
8501;BME280;4288;48.484;10.024;2022-12-19T00:11:19;96570.75;;;-5.32;nan
8501;BME280;4288;48.484;10.024;2022-12-19T00:13:46;96569.72;;;-5.31;nan
8501;BME280;4288;48.484;10.024;2022-12-19T00:16:16;96568.19;;;-5.22;nan
8501;BME280;4288;48.484;10.024;2022-12-19T00:18:45;96566.09;;;-5.25;nan
8501;BME280;4288;48.484;10.024;2022-12-19T00:21:15;96574.16;;;-5.27;nan
8501;BME280;4288;48.484;10.024;2022-12-19T00:23:43;96572.63;;;-5.23;nan
8501;BME280;4288;48.484;10.024;2022-12-19T00:26:13;96574.41;;;-5.28;nan
8501;BME280;4288;48.484;10.024;2022-12-19T00:28:44;96573.91;;;-5.25;nan
8501;BME280;4288;48.484;10.024;2022-12-19T00:31:12;96567.91;;;-5.26;nan
8501;BME280;4288;48.484;10.024;2022-12-19T00:33:40;96564.03;;;-5.23;nan
8501;BME280;4288;48.484;10.024;2022-12-19T00:36:11;96566.06;;;-5.30;nan
8501;BME280;4288;48.484;10.024;2022-12-19T00:38:38;96581.97;;;-5.27;nan
8501;BME280;4288;48.484;10.024;2022-12-19T00:41:07;96569.19;;;-5.28;nan
8501;BME280;4288;48.484;10.024;2022-12-19T00:43:34;96572.84;;;-5.24;nan
8501;BME280;4288;48.484;10.024;2022-12-19T00:46:05;96564.50;;;-5.31;nan
8501;BME280;4288;48.484;10.024;2022-12-19T00:48:33;96573.13;;;-5.26;nan
8501;BME280;4288;48.484;10.024;2022-12-19T00:51:00;96578.63;;;-5.17;nan
8501;BME280;4288;48.484;10.024;2022-12-19T00:53:28;96584.91;;;-5.13;nan
8501;BME280;4288;48.484;10.024;2022-12-19T00:55:55;96583.06;;;-5.13;nan
8501;BME280;4288;48.484;10.024;2022-12-19T00:58:22;96577.63;;;-5.11;nan
8501;BME280;4288;48.484;10.024;2022-12-19T01:00:49;96571.88;;;-5.13;nan
8501;BME280;4288;48.484;10.024;2022-12-19T01:03:18;96573.97;;;-5.15;nan
8501;BME280;4288;48.484;10.024;2022-12-19T01:05:45;96577.09;;;-5.13;nan
8501;BME280;4288;48.484;10.024;2022-12-19T01:08:12;96579.16;;;-5.15;nan
8501;BME280;4288;48.484;10.024;2022-12-19T01:10:44;96569.25;;;-5.18;nan
8501;BME280;4288;48.484;10.024;2022-12-19T01:13:12;96565.09;;;-5.19;nan
8501;BME280;4288;48.484;10.024;2022-12-19T01:15:39;96573.97;;;-5.15;nan
8501;BME280;4288;48.484;10.024;2022-12-19T01:18:06;96576.28;;;-5.19;nan
8501;BME280;4288;48.484;10.024;2022-12-19T01:20:37;96570.03;;;-5.13;nan
8501;BME280;4288;48.484;10.024;2022-12-19T01:23:05;96563.53;;;-5.15;nan
8501;BME280;4288;48.484;10.024;2022-12-19T01:25:32;96554.13;;;-5.16;nan
8501;BME280;4288;48.484;10.024;2022-12-19T01:28:00;96546.31;;;-5.16;nan
8501;BME280;4288;48.484;10.024;2022-12-19T01:30:28;96548.66;;;-5.20;nan
8501;BME280;4288;48.484;10.024;2022-12-19T01:32:56;96542.38;;;-5.29;nan
8501;BME280;4288;48.484;10.024;2022-12-19T01:35:24;96544.72;;;-5.27;nan
8501;BME280;4288;48.484;10.024;2022-12-19T01:37:53;96553.53;;;-5.38;nan
8501;BME280;4288;48.484;10.024;2022-12-19T01:40:21;96541.81;;;-5.36;nan
8501;BME280;4288;48.484;10.024;2022-12-19T01:42:49;96568.09;;;-5.43;nan
8501;BME280;4288;48.484;10.024;2022-12-19T01:45:27;96549.88;;;-5.43;nan
8501;BME280;4288;48.484;10.024;2022-12-19T01:48:12;96524.63;;;-5.37;nan
8501;BME280;4288;48.484;10.024;2022-12-19T01:50:53;96517.84;;;-5.38;nan
8501;BME280;4288;48.484;10.024;2022-12-19T01:53:25;96535.78;;;-5.47;nan
8501;BME280;4288;48.484;10.024;2022-12-19T01:55:54;96572.47;;;-5.53;nan
8501;BME280;4288;48.484;10.024;2022-12-19T01:58:22;96577.66;;;-5.53;nan
8501;BME280;4288;48.484;10.024;2022-12-19T02:00:49;96600.84;;;-5.52;nan
8501;BME280;4288;48.484;10.024;2022-12-19T02:03:23;96565.44;;;-5.53;nan
8501;BME280;4288;48.484;10.024;2022-12-19T02:05:53;96560.53;;;-5.44;nan
8501;BME280;4288;48.484;10.024;2022-12-19T02:08:23;96569.16;;;-5.38;nan
8501;BME280;4288;48.484;10.024;2022-12-19T02:10:50;96547.53;;;-5.39;nan
8501;BME280;4288;48.484;10.024;2022-12-19T02:13:18;96552.53;;;-5.27;nan
8501;BME280;4288;48.484;10.024;2022-12-19T02:15:52;96540.84;;;-5.25;nan
8501;BME280;4288;48.484;10.024;2022-12-19T02:18:31;96539.81;;;-5.19;nan
8501;BME280;4288;48.484;10.024;2022-12-19T02:21:26;96530.72;;;-5.11;nan
8501;BME280;4288;48.484;10.024;2022-12-19T02:24:33;96526.03;;;-5.09;nan
8501;BME280;4288;48.484;10.024;2022-12-19T02:27:28;96532.81;;;-5.13;nan
8501;BME280;4288;48.484;10.024;2022-12-19T02:30:10;96540.88;;;-5.05;nan
8501;BME280;4288;48.484;10.024;2022-12-19T02:32:52;96540.13;;;-5.00;nan
8501;BME280;4288;48.484;10.024;2022-12-19T02:35:32;96520.34;;;-4.96;nan
8501;BME280;4288;48.484;10.024;2022-12-19T02:38:10;96516.41;;;-4.99;nan
8501;BME280;4288;48.484;10.024;2022-12-19T02:40:45;96492.72;;;-4.92;nan
8501;BME280;4288;48.484;10.024;2022-12-19T02:43:14;96487.78;;;-4.94;nan
8501;BME280;4288;48.484;10.024;2022-12-19T02:45:44;96497.94;;;-4.92;nan
8501;BME280;4288;48.484;10.024;2022-12-19T02:48:14;96567.78;;;-4.99;nan
8501;BME280;4288;48.484;10.024;2022-12-19T02:50:44;96538.59;;;-5.01;nan
8501;BME280;4288;48.484;10.024;2022-12-19T02:53:14;96558.38;;;-5.00;nan
8501;BME280;4288;48.484;10.024;2022-12-19T02:55:48;96562.31;;;-4.98;nan
8501;BME280;4288;48.484;10.024;2022-12-19T02:58:42;96562.56;;;-4.99;nan
8501;BME280;4288;48.484;10.024;2022-12-19T03:01:23;96560.97;;;-4.95;nan
8501;BME280;4288;48.484;10.024;2022-12-19T03:04:06;96547.94;;;-4.95;nan
8501;BME280;4288;48.484;10.024;2022-12-19T03:06:45;96516.41;;;-4.99;nan
8501;BME280;4288;48.484;10.024;2022-12-19T03:09:22;96534.44;;;-4.87;nan
8501;BME280;4288;48.484;10.024;2022-12-19T03:11:56;96550.63;;;-4.80;nan
8501;BME280;4288;48.484;10.024;2022-12-19T03:14:27;96546.19;;;-4.75;nan
8501;BME280;4288;48.484;10.024;2022-12-19T03:16:55;96551.16;;;-4.73;nan
8501;BME280;4288;48.484;10.024;2022-12-19T03:19:24;96547.00;;;-4.69;nan
8501;BME280;4288;48.484;10.024;2022-12-19T03:21:51;96542.31;;;-4.72;nan
8501;BME280;4288;48.484;10.024;2022-12-19T03:24:19;96536.03;;;-4.66;nan
8501;BME280;4288;48.484;10.024;2022-12-19T03:26:51;96545.16;;;-4.64;nan
8501;BME280;4288;48.484;10.024;2022-12-19T03:29:26;96521.47;;;-4.57;nan
8501;BME280;4288;48.484;10.024;2022-12-19T03:31:56;96530.34;;;-4.53;nan
8501;BME280;4288;48.484;10.024;2022-12-19T03:34:30;96532.94;;;-4.53;nan
8501;BME280;4288;48.484;10.024;2022-12-19T03:37:02;96535.81;;;-4.55;nan
8501;BME280;4288;48.484;10.024;2022-12-19T03:39:31;96549.13;;;-4.51;nan
8501;BME280;4288;48.484;10.024;2022-12-19T03:41:59;96532.41;;;-4.50;nan
8501;BME280;4288;48.484;10.024;2022-12-19T03:44:46;96553.00;;;-4.48;nan
8501;BME280;4288;48.484;10.024;2022-12-19T03:47:20;96558.75;;;-4.46;nan
8501;BME280;4288;48.484;10.024;2022-12-19T03:49:50;96557.19;;;-4.42;nan
8501;BME280;4288;48.484;10.024;2022-12-19T03:52:25;96563.22;;;-4.37;nan
8501;BME280;4288;48.484;10.024;2022-12-19T03:55:03;96561.13;;;-4.30;nan
8501;BME280;4288;48.484;10.024;2022-12-19T03:57:38;96567.66;;;-4.27;nan
8501;BME280;4288;48.484;10.024;2022-12-19T04:00:13;96549.38;;;-4.32;nan
8501;BME280;4288;48.484;10.024;2022-12-19T04:02:45;96535.53;;;-4.33;nan
8501;BME280;4288;48.484;10.024;2022-12-19T04:05:19;96536.09;;;-4.26;nan
8501;BME280;4288;48.484;10.024;2022-12-19T04:07:47;96545.47;;;-4.25;nan
8501;BME280;4288;48.484;10.024;2022-12-19T04:10:20;96542.09;;;-4.20;nan
8501;BME280;4288;48.484;10.024;2022-12-19T04:12:54;96528.78;;;-4.19;nan
8501;BME280;4288;48.484;10.024;2022-12-19T04:15:32;96538.16;;;-4.13;nan
8501;BME280;4288;48.484;10.024;2022-12-19T04:18:03;96556.97;;;-4.16;nan
8501;BME280;4288;48.484;10.024;2022-12-19T04:20:35;96553.06;;;-4.23;nan
8501;BME280;4288;48.484;10.024;2022-12-19T04:23:08;96568.16;;;-4.15;nan
8501;BME280;4288;48.484;10.024;2022-12-19T04:25:44;96567.13;;;-4.09;nan
8501;BME280;4288;48.484;10.024;2022-12-19T04:28:17;96561.16;;;-4.10;nan
8501;BME280;4288;48.484;10.024;2022-12-19T04:30:46;96558.00;;;-4.02;nan
8501;BME280;4288;48.484;10.024;2022-12-19T04:33:14;96559.56;;;-3.96;nan
8501;BME280;4288;48.484;10.024;2022-12-19T04:35:42;96547.31;;;-3.90;nan
8501;BME280;4288;48.484;10.024;2022-12-19T04:38:10;96564.25;;;-3.88;nan
8501;BME280;4288;48.484;10.024;2022-12-19T04:40:37;96556.94;;;-3.96;nan
8501;BME280;4288;48.484;10.024;2022-12-19T04:43:04;96554.34;;;-3.86;nan
8501;BME280;4288;48.484;10.024;2022-12-19T04:45:33;96559.81;;;-3.77;nan
8501;BME280;4288;48.484;10.024;2022-12-19T04:48:00;96557.19;;;-3.72;nan
8501;BME280;4288;48.484;10.024;2022-12-19T04:50:27;96564.25;;;-3.73;nan
8501;BME280;4288;48.484;10.024;2022-12-19T04:52:55;96564.78;;;-3.76;nan
8501;BME280;4288;48.484;10.024;2022-12-19T04:55:22;96564.50;;;-3.69;nan
8501;BME280;4288;48.484;10.024;2022-12-19T04:57:49;96566.59;;;-3.61;nan
8501;BME280;4288;48.484;10.024;2022-12-19T05:00:17;96551.97;;;-3.67;nan
8501;BME280;4288;48.484;10.024;2022-12-19T05:02:44;96560.56;;;-3.62;nan
8501;BME280;4288;48.484;10.024;2022-12-19T05:05:11;96570.75;;;-3.60;nan
8501;BME280;4288;48.484;10.024;2022-12-19T05:07:38;96568.94;;;-3.65;nan
8501;BME280;4288;48.484;10.024;2022-12-19T05:10:08;96565.53;;;-3.60;nan
8501;BME280;4288;48.484;10.024;2022-12-19T05:12:35;96560.31;;;-3.55;nan
8501;BME280;4288;48.484;10.024;2022-12-19T05:15:03;96567.34;;;-3.50;nan
8501;BME280;4288;48.484;10.024;2022-12-19T05:17:31;96550.13;;;-3.51;nan
8501;BME280;4288;48.484;10.024;2022-12-19T05:19:58;96545.91;;;-3.42;nan
8501;BME280;4288;48.484;10.024;2022-12-19T05:22:25;96549.56;;;-3.43;nan
8501;BME280;4288;48.484;10.024;2022-12-19T05:24:52;96542.78;;;-3.39;nan
8501;BME280;4288;48.484;10.024;2022-12-19T05:27:21;96551.63;;;-3.35;nan
8501;BME280;4288;48.484;10.024;2022-12-19T05:29:48;96547.69;;;-3.33;nan
8501;BME280;4288;48.484;10.024;2022-12-19T05:32:15;96555.25;;;-3.26;nan
8501;BME280;4288;48.484;10.024;2022-12-19T05:34:42;96550.81;;;-3.26;nan
8501;BME280;4288;48.484;10.024;2022-12-19T05:37:09;96555.75;;;-3.19;nan
8501;BME280;4288;48.484;10.024;2022-12-19T05:39:36;96542.16;;;-3.16;nan
8501;BME280;4288;48.484;10.024;2022-12-19T05:42:04;96548.94;;;-3.10;nan
8501;BME280;4288;48.484;10.024;2022-12-19T05:44:32;96545.00;;;-3.08;nan
8501;BME280;4288;48.484;10.024;2022-12-19T05:46:59;96544.47;;;-3.05;nan
8501;BME280;4288;48.484;10.024;2022-12-19T05:49:26;96529.53;;;-2.99;nan
8501;BME280;4288;48.484;10.024;2022-12-19T05:51:54;96530.31;;;-2.99;nan
8501;BME280;4288;48.484;10.024;2022-12-19T05:54:21;96530.56;;;-2.95;nan
8501;BME280;4288;48.484;10.024;2022-12-19T05:56:48;96536.31;;;-2.93;nan
8501;BME280;4288;48.484;10.024;2022-12-19T05:59:15;96537.63;;;-2.91;nan
8501;BME280;4288;48.484;10.024;2022-12-19T06:01:43;96544.13;;;-2.88;nan
8501;BME280;4288;48.484;10.024;2022-12-19T06:04:11;96549.63;;;-2.90;nan
8501;BME280;4288;48.484;10.024;2022-12-19T06:06:38;96553.22;;;-2.81;nan
8501;BME280;4288;48.484;10.024;2022-12-19T06:09:05;96545.41;;;-2.86;nan
8501;BME280;4288;48.484;10.024;2022-12-19T06:11:33;96546.97;;;-2.85;nan
8501;BME280;4288;48.484;10.024;2022-12-19T06:14:00;96541.50;;;-2.88;nan
8501;BME280;4288;48.484;10.024;2022-12-19T06:16:27;96546.72;;;-2.88;nan
8501;BME280;4288;48.484;10.024;2022-12-19T06:18:55;96547.53;;;-2.88;nan
8501;BME280;4288;48.484;10.024;2022-12-19T06:21:22;96544.91;;;-2.88;nan
8501;BME280;4288;48.484;10.024;2022-12-19T06:23:50;96544.94;;;-2.93;nan
8501;BME280;4288;48.484;10.024;2022-12-19T06:26:19;96543.91;;;-2.97;nan
8501;BME280;4288;48.484;10.024;2022-12-19T06:28:47;96537.91;;;-2.97;nan
8501;BME280;4288;48.484;10.024;2022-12-19T06:31:16;96536.03;;;-2.92;nan
8501;BME280;4288;48.484;10.024;2022-12-19T06:33:43;96538.66;;;-2.92;nan
8501;BME280;4288;48.484;10.024;2022-12-19T06:36:15;96543.38;;;-2.94;nan
8501;BME280;4288;48.484;10.024;2022-12-19T06:38:42;96536.28;;;-2.88;nan
8501;BME280;4288;48.484;10.024;2022-12-19T06:41:10;96528.41;;;-2.83;nan
8501;BME280;4288;48.484;10.024;2022-12-19T06:43:57;96529.72;;;-2.86;nan
8501;BME280;4288;48.484;10.024;2022-12-19T06:46:24;96528.66;;;-2.85;nan
8501;BME280;4288;48.484;10.024;2022-12-19T06:48:51;96534.16;;;-2.81;nan
8501;BME280;4288;48.484;10.024;2022-12-19T06:51:20;96544.88;;;-2.78;nan
8501;BME280;4288;48.484;10.024;2022-12-19T06:53:47;96540.66;;;-2.74;nan
8501;BME280;4288;48.484;10.024;2022-12-19T06:56:16;96546.38;;;-2.66;nan
8501;BME280;4288;48.484;10.024;2022-12-19T06:58:43;96538.00;;;-2.63;nan
8501;BME280;4288;48.484;10.024;2022-12-19T07:01:16;96536.13;;;-2.58;nan
8501;BME280;4288;48.484;10.024;2022-12-19T07:03:44;96529.63;;;-2.65;nan
8501;BME280;4288;48.484;10.024;2022-12-19T07:06:12;96527.75;;;-2.60;nan
8501;BME280;4288;48.484;10.024;2022-12-19T07:08:40;96522.75;;;-2.56;nan
8501;BME280;4288;48.484;10.024;2022-12-19T07:11:08;96520.59;;;-2.49;nan
8501;BME280;4288;48.484;10.024;2022-12-19T07:13:35;96523.50;;;-2.51;nan
8501;BME280;4288;48.484;10.024;2022-12-19T07:16:04;96513.03;;;-2.46;nan
8501;BME280;4288;48.484;10.024;2022-12-19T07:18:36;96517.69;;;-2.43;nan
8501;BME280;4288;48.484;10.024;2022-12-19T07:21:04;96516.09;;;-2.39;nan
8501;BME280;4288;48.484;10.024;2022-12-19T07:23:33;96528.09;;;-2.33;nan
8501;BME280;4288;48.484;10.024;2022-12-19T07:26:02;96523.38;;;-2.31;nan
8501;BME280;4288;48.484;10.024;2022-12-19T07:28:29;96516.81;;;-2.28;nan
8501;BME280;4288;48.484;10.024;2022-12-19T07:30:58;96521.50;;;-2.25;nan
8501;BME280;4288;48.484;10.024;2022-12-19T07:33:25;96526.44;;;-2.24;nan
8501;BME280;4288;48.484;10.024;2022-12-19T07:35:52;96527.75;;;-2.21;nan
8501;BME280;4288;48.484;10.024;2022-12-19T07:38:19;96536.31;;;-2.11;nan
8501;BME280;4288;48.484;10.024;2022-12-19T07:40:46;96533.69;;;-2.11;nan
8501;BME280;4288;48.484;10.024;2022-12-19T07:43:15;96529.72;;;-2.08;nan
8501;BME280;4288;48.484;10.024;2022-12-19T07:45:42;96522.72;;;-2.13;nan
8501;BME280;4288;48.484;10.024;2022-12-19T07:48:09;96528.41;;;-2.06;nan
8501;BME280;4288;48.484;10.024;2022-12-19T07:50:36;96523.41;;;-2.02;nan
8501;BME280;4288;48.484;10.024;2022-12-19T07:53:03;96530.97;;;-2.01;nan
8501;BME280;4288;48.484;10.024;2022-12-19T07:55:31;96529.88;;;-1.95;nan
8501;BME280;4288;48.484;10.024;2022-12-19T07:57:58;96525.66;;;-1.91;nan
8501;BME280;4288;48.484;10.024;2022-12-19T08:00:26;96527.16;;;-1.85;nan
8501;BME280;4288;48.484;10.024;2022-12-19T08:02:55;96531.81;;;-1.76;nan
8501;BME280;4288;48.484;10.024;2022-12-19T08:05:22;96528.13;;;-1.75;nan
8501;BME280;4288;48.484;10.024;2022-12-19T08:07:52;96529.66;;;-1.69;nan
8501;BME280;4288;48.484;10.024;2022-12-19T08:10:20;96524.38;;;-1.64;nan
8501;BME280;4288;48.484;10.024;2022-12-19T08:12:48;96515.13;;;-1.57;nan
8501;BME280;4288;48.484;10.024;2022-12-19T08:15:15;96519.53;;;-1.52;nan
8501;BME280;4288;48.484;10.024;2022-12-19T08:17:44;96523.16;;;-1.48;nan
8501;BME280;4288;48.484;10.024;2022-12-19T08:20:11;96516.78;;;-1.42;nan
8501;BME280;4288;48.484;10.024;2022-12-19T08:22:38;96530.34;;;-1.35;nan
8501;BME280;4288;48.484;10.024;2022-12-19T08:25:07;96528.28;;;-1.38;nan
8501;BME280;4288;48.484;10.024;2022-12-19T08:27:34;96527.84;;;-1.45;nan
8501;BME280;4288;48.484;10.024;2022-12-19T08:30:02;96528.91;;;-1.46;nan
8501;BME280;4288;48.484;10.024;2022-12-19T08:32:29;96532.00;;;-1.44;nan
8501;BME280;4288;48.484;10.024;2022-12-19T08:34:57;96530.63;;;-1.37;nan
8501;BME280;4288;48.484;10.024;2022-12-19T08:37:24;96528.78;;;-1.36;nan
8501;BME280;4288;48.484;10.024;2022-12-19T08:39:52;96542.47;;;-1.39;nan
8501;BME280;4288;48.484;10.024;2022-12-19T08:42:19;96540.34;;;-1.37;nan
8501;BME280;4288;48.484;10.024;2022-12-19T08:44:46;96531.06;;;-1.30;nan
8501;BME280;4288;48.484;10.024;2022-12-19T08:47:13;96536.09;;;-1.33;nan
8501;BME280;4288;48.484;10.024;2022-12-19T08:49:40;96540.56;;;-1.34;nan
8501;BME280;4288;48.484;10.024;2022-12-19T08:52:09;96537.00;;;-1.19;nan
8501;BME280;4288;48.484;10.024;2022-12-19T08:54:36;96538.38;;;-1.27;nan
8501;BME280;4288;48.484;10.024;2022-12-19T08:57:03;96543.91;;;-1.28;nan
8501;BME280;4288;48.484;10.024;2022-12-19T08:59:30;96540.44;;;-1.24;nan
8501;BME280;4288;48.484;10.024;2022-12-19T09:01:58;96537.50;;;-1.17;nan
8501;BME280;4288;48.484;10.024;2022-12-19T09:04:25;96543.75;;;-1.13;nan
8501;BME280;4288;48.484;10.024;2022-12-19T09:06:52;96554.06;;;-1.22;nan
8501;BME280;4288;48.484;10.024;2022-12-19T09:09:21;96544.78;;;-1.14;nan
8501;BME280;4288;48.484;10.024;2022-12-19T09:11:48;96542.09;;;-1.09;nan
8501;BME280;4288;48.484;10.024;2022-12-19T09:14:15;96538.22;;;-1.12;nan
8501;BME280;4288;48.484;10.024;2022-12-19T09:16:42;96542.56;;;-1.02;nan
8501;BME280;4288;48.484;10.024;2022-12-19T09:19:09;96553.28;;;-0.99;nan
8501;BME280;4288;48.484;10.024;2022-12-19T09:21:40;96546.13;;;-0.93;nan
8501;BME280;4288;48.484;10.024;2022-12-19T09:24:08;96540.38;;;-0.95;nan
8501;BME280;4288;48.484;10.024;2022-12-19T09:26:37;96543.69;;;-0.90;nan
8501;BME280;4288;48.484;10.024;2022-12-19T09:29:04;96541.53;;;-0.82;nan
8501;BME280;4288;48.484;10.024;2022-12-19T09:31:32;96540.13;;;-0.75;nan
8501;BME280;4288;48.484;10.024;2022-12-19T09:34:00;96533.75;;;-0.69;nan
8501;BME280;4288;48.484;10.024;2022-12-19T09:36:27;96532.41;;;-0.66;nan
8501;BME280;4288;48.484;10.024;2022-12-19T09:38:56;96528.06;;;-0.57;nan
8501;BME280;4288;48.484;10.024;2022-12-19T09:41:52;96530.75;;;-0.44;nan
8501;BME280;4288;48.484;10.024;2022-12-19T09:44:40;96532.66;;;-0.31;nan
8501;BME280;4288;48.484;10.024;2022-12-19T09:47:12;96538.50;;;-0.34;nan
8501;BME280;4288;48.484;10.024;2022-12-19T09:49:42;96526.38;;;-0.30;nan
8501;BME280;4288;48.484;10.024;2022-12-19T09:52:14;96530.19;;;-0.22;nan
8501;BME280;4288;48.484;10.024;2022-12-19T09:54:47;96537.63;;;-0.11;nan
8501;BME280;4288;48.484;10.024;2022-12-19T09:57:22;96530.44;;;-0.05;nan
8501;BME280;4288;48.484;10.024;2022-12-19T09:59:55;96516.44;;;-0.01;nan
8501;BME280;4288;48.484;10.024;2022-12-19T10:02:31;96518.31;;;0.13;nan
8501;BME280;4288;48.484;10.024;2022-12-19T10:05:22;96521.34;;;0.20;nan
8501;BME280;4288;48.484;10.024;2022-12-19T10:07:52;96519.13;;;0.27;nan
8501;BME280;4288;48.484;10.024;2022-12-19T10:10:26;96506.38;;;0.20;nan
8501;BME280;4288;48.484;10.024;2022-12-19T10:13:10;96498.00;;;0.18;nan
8501;BME280;4288;48.484;10.024;2022-12-19T10:15:47;96501.41;;;0.19;nan
8501;BME280;4288;48.484;10.024;2022-12-19T10:18:32;96496.28;;;0.41;nan
8501;BME280;4288;48.484;10.024;2022-12-19T10:21:06;96491.72;;;0.46;nan
8501;BME280;4288;48.484;10.024;2022-12-19T10:24:13;96497.97;;;0.64;nan
8501;BME280;4288;48.484;10.024;2022-12-19T10:26:51;96479.84;;;0.62;nan
8501;BME280;4288;48.484;10.024;2022-12-19T10:29:42;96465.88;;;0.89;nan
8501;BME280;4288;48.484;10.024;2022-12-19T10:32:21;96467.88;;;1.06;nan
8501;BME280;4288;48.484;10.024;2022-12-19T10:34:50;96466.31;;;1.18;nan
8501;BME280;4288;48.484;10.024;2022-12-19T10:37:24;96469.09;;;1.79;nan
8501;BME280;4288;48.484;10.024;2022-12-19T10:42:43;96464.66;;;2.11;nan
8501;BME280;4288;48.484;10.024;2022-12-19T10:45:19;96467.63;;;2.40;nan
8501;BME280;4288;48.484;10.024;2022-12-19T10:47:47;96466.69;;;1.83;nan
8501;BME280;4288;48.484;10.024;2022-12-19T10:50:20;96474.84;;;1.37;nan
8501;BME280;4288;48.484;10.024;2022-12-19T10:52:53;96467.28;;;1.22;nan
8501;BME280;4288;48.484;10.024;2022-12-19T10:55:39;96455.22;;;1.08;nan
8501;BME280;4288;48.484;10.024;2022-12-19T10:58:21;96453.50;;;0.89;nan
8501;BME280;4288;48.484;10.024;2022-12-19T11:01:07;96461.00;;;0.96;nan
8501;BME280;4288;48.484;10.024;2022-12-19T11:03:37;96450.38;;;1.01;nan
8501;BME280;4288;48.484;10.024;2022-12-19T11:06:38;96462.06;;;0.95;nan
8501;BME280;4288;48.484;10.024;2022-12-19T11:09:24;96453.66;;;1.07;nan
8501;BME280;4288;48.484;10.024;2022-12-19T11:11:59;96460.44;;;1.21;nan
8501;BME280;4288;48.484;10.024;2022-12-19T11:14:28;96458.59;;;1.22;nan
8501;BME280;4288;48.484;10.024;2022-12-19T11:16:57;96450.34;;;1.37;nan
8501;BME280;4288;48.484;10.024;2022-12-19T11:19:29;96456.31;;;1.64;nan
8501;BME280;4288;48.484;10.024;2022-12-19T11:22:01;96456.88;;;2.06;nan
8501;BME280;4288;48.484;10.024;2022-12-19T11:24:34;96444.69;;;3.22;nan
8501;BME280;4288;48.484;10.024;2022-12-19T11:27:02;96447.94;;;4.42;nan
8501;BME280;4288;48.484;10.024;2022-12-19T11:29:42;96449.53;;;5.02;nan
8501;BME280;4288;48.484;10.024;2022-12-19T11:32:34;96446.75;;;4.98;nan
8501;BME280;4288;48.484;10.024;2022-12-19T11:35:03;96446.03;;;4.89;nan
8501;BME280;4288;48.484;10.024;2022-12-19T11:37:37;96435.44;;;5.10;nan
8501;BME280;4288;48.484;10.024;2022-12-19T11:40:16;96429.69;;;5.70;nan
8501;BME280;4288;48.484;10.024;2022-12-19T11:42:51;96416.47;;;5.82;nan
8501;BME280;4288;48.484;10.024;2022-12-19T11:45:26;96421.63;;;5.46;nan
8501;BME280;4288;48.484;10.024;2022-12-19T11:48:05;96412.28;;;5.60;nan
8501;BME280;4288;48.484;10.024;2022-12-19T11:50:43;96418.69;;;4.68;nan
8501;BME280;4288;48.484;10.024;2022-12-19T11:53:22;96416.06;;;4.97;nan
8501;BME280;4288;48.484;10.024;2022-12-19T11:55:53;96405.25;;;5.85;nan
8501;BME280;4288;48.484;10.024;2022-12-19T11:58:23;96403.03;;;6.32;nan
8501;BME280;4288;48.484;10.024;2022-12-19T12:01:02;96391.06;;;6.50;nan
8501;BME280;4288;48.484;10.024;2022-12-19T12:04:00;96389.25;;;6.05;nan
8501;BME280;4288;48.484;10.024;2022-12-19T12:06:34;96399.47;;;5.83;nan
8501;BME280;4288;48.484;10.024;2022-12-19T12:09:16;96406.91;;;5.89;nan
8501;BME280;4288;48.484;10.024;2022-12-19T12:11:49;96413.66;;;5.04;nan
8501;BME280;4288;48.484;10.024;2022-12-19T12:14:20;96413.72;;;4.37;nan
8501;BME280;4288;48.484;10.024;2022-12-19T12:17:34;96415.13;;;3.80;nan
8501;BME280;4288;48.484;10.024;2022-12-19T12:20:27;96409.88;;;3.29;nan
8501;BME280;4288;48.484;10.024;2022-12-19T12:23:25;96408.44;;;2.80;nan
8501;BME280;4288;48.484;10.024;2022-12-19T12:26:02;96404.94;;;2.54;nan
8501;BME280;4288;48.484;10.024;2022-12-19T12:29:00;96408.81;;;2.48;nan
8501;BME280;4288;48.484;10.024;2022-12-19T12:31:49;96404.19;;;2.62;nan
8501;BME280;4288;48.484;10.024;2022-12-19T12:34:51;96393.66;;;2.53;nan
8501;BME280;4288;48.484;10.024;2022-12-19T12:37:42;96395.03;;;2.51;nan
8501;BME280;4288;48.484;10.024;2022-12-19T12:40:43;96397.72;;;2.20;nan
8501;BME280;4288;48.484;10.024;2022-12-19T12:43:25;96388.00;;;2.38;nan
8501;BME280;4288;48.484;10.024;2022-12-19T12:45:57;96394.03;;;2.38;nan
8501;BME280;4288;48.484;10.024;2022-12-19T12:48:29;96399.50;;;2.50;nan
8501;BME280;4288;48.484;10.024;2022-12-19T12:50:59;96399.59;;;2.76;nan
8501;BME280;4288;48.484;10.024;2022-12-19T12:53:36;96389.84;;;3.02;nan
8501;BME280;4288;48.484;10.024;2022-12-19T12:56:06;96395.28;;;2.89;nan
8501;BME280;4288;48.484;10.024;2022-12-19T13:01:33;96393.19;;;2.60;nan
8501;BME280;4288;48.484;10.024;2022-12-19T13:04:15;96387.78;;;2.82;nan
8501;BME280;4288;48.484;10.024;2022-12-19T13:07:26;96385.34;;;3.20;nan
8501;BME280;4288;48.484;10.024;2022-12-19T13:10:25;96389.84;;;3.45;nan
8501;BME280;4288;48.484;10.024;2022-12-19T13:12:55;96385.16;;;3.50;nan
8501;BME280;4288;48.484;10.024;2022-12-19T13:15:38;96384.81;;;3.78;nan
8501;BME280;4288;48.484;10.024;2022-12-19T13:18:30;96380.91;;;3.75;nan
8501;BME280;4288;48.484;10.024;2022-12-19T13:21:00;96377.81;;;3.73;nan
8501;BME280;4288;48.484;10.024;2022-12-19T13:23:49;96368.56;;;3.16;nan
8501;BME280;4288;48.484;10.024;2022-12-19T13:26:46;96367.16;;;3.01;nan
8501;BME280;4288;48.484;10.024;2022-12-19T13:29:30;96376.28;;;2.78;nan
8501;BME280;4288;48.484;10.024;2022-12-19T13:32:13;96384.06;;;2.75;nan
8501;BME280;4288;48.484;10.024;2022-12-19T13:34:52;96380.19;;;2.81;nan
8501;BME280;4288;48.484;10.024;2022-12-19T13:37:30;96371.97;;;2.82;nan
8501;BME280;4288;48.484;10.024;2022-12-19T13:40:13;96373.75;;;2.47;nan
8501;BME280;4288;48.484;10.024;2022-12-19T13:42:56;96374.78;;;2.29;nan
8501;BME280;4288;48.484;10.024;2022-12-19T13:45:49;96364.47;;;2.58;nan
8501;BME280;4288;48.484;10.024;2022-12-19T13:48:28;96355.16;;;2.69;nan
8501;BME280;4288;48.484;10.024;2022-12-19T13:50:59;96354.22;;;2.57;nan
8501;BME280;4288;48.484;10.024;2022-12-19T13:53:29;96372.50;;;2.45;nan
8501;BME280;4288;48.484;10.024;2022-12-19T13:56:00;96374.63;;;2.26;nan
8501;BME280;4288;48.484;10.024;2022-12-19T13:58:31;96378.69;;;2.01;nan
8501;BME280;4288;48.484;10.024;2022-12-19T14:01:02;96384.50;;;1.81;nan
8501;BME280;4288;48.484;10.024;2022-12-19T14:03:36;96381.94;;;1.67;nan
8501;BME280;4288;48.484;10.024;2022-12-19T14:06:10;96393.53;;;1.58;nan
8501;BME280;4288;48.484;10.024;2022-12-19T14:08:44;96382.09;;;1.40;nan
8501;BME280;4288;48.484;10.024;2022-12-19T14:11:16;96371.00;;;1.30;nan
8501;BME280;4288;48.484;10.024;2022-12-19T14:13:48;96378.56;;;1.23;nan